sensor_id;sensor_type;location;lat;lon;timestamp;P1;P2;P0
26185;PMS7003;20067;48.764;9.176;2022-11-27T00:01:12;61.00;48.75;33.75
26185;PMS7003;20067;48.764;9.176;2022-11-27T00:03:39;52.67;47.00;35.67
26185;PMS7003;20067;48.764;9.176;2022-11-27T00:06:06;56.67;53.00;38.00
26185;PMS7003;20067;48.764;9.176;2022-11-27T00:08:32;53.00;48.00;36.00
26185;PMS7003;20067;48.764;9.176;2022-11-27T00:11:05;50.67;49.33;34.00
26185;PMS7003;20067;48.764;9.176;2022-11-27T00:13:32;62.00;54.00;37.33
26185;PMS7003;20067;48.764;9.176;2022-11-27T00:15:58;59.67;52.33;38.00
26185;PMS7003;20067;48.764;9.176;2022-11-27T00:18:24;46.67;44.67;32.67
26185;PMS7003;20067;48.764;9.176;2022-11-27T00:20:49;55.33;51.33;37.33
26185;PMS7003;20067;48.764;9.176;2022-11-27T00:23:15;44.00;43.67;31.33
26185;PMS7003;20067;48.764;9.176;2022-11-27T00:25:47;53.67;46.00;33.33
26185;PMS7003;20067;48.764;9.176;2022-11-27T00:28:14;44.67;44.67;31.67
26185;PMS7003;20067;48.764;9.176;2022-11-27T00:30:40;56.67;52.67;37.67
26185;PMS7003;20067;48.764;9.176;2022-11-27T00:33:05;53.00;50.00;36.33
26185;PMS7003;20067;48.764;9.176;2022-11-27T00:35:31;53.00;51.67;37.67
26185;PMS7003;20067;48.764;9.176;2022-11-27T00:37:56;47.00;47.00;36.33
26185;PMS7003;20067;48.764;9.176;2022-11-27T00:40:22;46.67;42.00;31.00
26185;PMS7003;20067;48.764;9.176;2022-11-27T00:42:47;54.33;50.00;35.67
26185;PMS7003;20067;48.764;9.176;2022-11-27T00:45:13;55.67;50.33;37.67
26185;PMS7003;20067;48.764;9.176;2022-11-27T00:47:38;46.67;42.33;33.67
26185;PMS7003;20067;48.764;9.176;2022-11-27T00:50:04;51.00;51.00;35.67
26185;PMS7003;20067;48.764;9.176;2022-11-27T00:52:30;45.25;42.00;29.75
26185;PMS7003;20067;48.764;9.176;2022-11-27T00:54:56;42.33;39.67;30.33
26185;PMS7003;20067;48.764;9.176;2022-11-27T00:57:22;47.33;44.00;33.67
26185;PMS7003;20067;48.764;9.176;2022-11-27T00:59:48;43.25;39.50;31.75
26185;PMS7003;20067;48.764;9.176;2022-11-27T01:02:13;47.67;44.00;30.00
26185;PMS7003;20067;48.764;9.176;2022-11-27T01:04:39;46.25;40.50;29.50
26185;PMS7003;20067;48.764;9.176;2022-11-27T01:07:04;40.00;36.67;26.00
26185;PMS7003;20067;48.764;9.176;2022-11-27T01:09:30;47.75;41.25;30.50
26185;PMS7003;20067;48.764;9.176;2022-11-27T01:11:55;40.50;39.50;26.50
26185;PMS7003;20067;48.764;9.176;2022-11-27T01:14:21;38.75;35.50;24.50
26185;PMS7003;20067;48.764;9.176;2022-11-27T01:16:46;49.25;43.75;28.50
26185;PMS7003;20067;48.764;9.176;2022-11-27T01:19:12;47.25;41.75;30.00
26185;PMS7003;20067;48.764;9.176;2022-11-27T01:21:39;43.00;41.00;29.00
26185;PMS7003;20067;48.764;9.176;2022-11-27T01:24:05;45.67;39.67;29.67
26185;PMS7003;20067;48.764;9.176;2022-11-27T01:26:31;49.25;44.25;30.00
26185;PMS7003;20067;48.764;9.176;2022-11-27T01:28:57;39.00;35.00;25.67
26185;PMS7003;20067;48.764;9.176;2022-11-27T01:31:24;45.00;40.50;31.00
26185;PMS7003;20067;48.764;9.176;2022-11-27T01:33:53;37.00;34.25;24.50
26185;PMS7003;20067;48.764;9.176;2022-11-27T01:36:21;36.00;32.00;23.00
26185;PMS7003;20067;48.764;9.176;2022-11-27T01:38:47;41.50;36.50;26.00
26185;PMS7003;20067;48.764;9.176;2022-11-27T01:46:13;45.75;37.75;24.75
26185;PMS7003;20067;48.764;9.176;2022-11-27T01:51:34;49.00;42.75;29.25
26185;PMS7003;20067;48.764;9.176;2022-11-27T01:54:11;40.75;38.00;29.00
26185;PMS7003;20067;48.764;9.176;2022-11-27T01:56:39;46.00;39.50;29.00
26185;PMS7003;20067;48.764;9.176;2022-11-27T01:59:07;41.25;36.75;25.50
26185;PMS7003;20067;48.764;9.176;2022-11-27T02:01:33;41.25;37.75;24.00
26185;PMS7003;20067;48.764;9.176;2022-11-27T02:03:59;38.00;35.50;24.75
26185;PMS7003;20067;48.764;9.176;2022-11-27T02:06:26;40.75;34.50;24.75
26185;PMS7003;20067;48.764;9.176;2022-11-27T02:08:52;42.75;37.50;26.00
26185;PMS7003;20067;48.764;9.176;2022-11-27T02:13:54;43.00;36.75;25.75
26185;PMS7003;20067;48.764;9.176;2022-11-27T02:19:42;39.00;34.25;25.00
26185;PMS7003;20067;48.764;9.176;2022-11-27T02:22:18;40.00;37.00;27.50
26185;PMS7003;20067;48.764;9.176;2022-11-27T02:30:40;46.67;44.67;32.00
26185;PMS7003;20067;48.764;9.176;2022-11-27T02:33:13;49.33;44.00;30.67
26185;PMS7003;20067;48.764;9.176;2022-11-27T02:36:05;46.67;44.67;30.67
26185;PMS7003;20067;48.764;9.176;2022-11-27T02:38:40;45.00;43.00;31.67
26185;PMS7003;20067;48.764;9.176;2022-11-27T02:41:29;43.00;40.67;30.67
26185;PMS7003;20067;48.764;9.176;2022-11-27T02:44:05;47.00;43.00;33.00
26185;PMS7003;20067;48.764;9.176;2022-11-27T02:46:34;46.33;43.00;31.67
26185;PMS7003;20067;48.764;9.176;2022-11-27T02:49:02;41.00;38.33;27.00
26185;PMS7003;20067;48.764;9.176;2022-11-27T02:51:34;45.25;39.25;28.50
26185;PMS7003;20067;48.764;9.176;2022-11-27T02:54:04;41.00;35.75;24.00
26185;PMS7003;20067;48.764;9.176;2022-11-27T02:56:33;41.25;37.75;26.00
26185;PMS7003;20067;48.764;9.176;2022-11-27T02:59:02;38.50;35.50;25.50
26185;PMS7003;20067;48.764;9.176;2022-11-27T03:01:32;41.25;35.25;25.00
26185;PMS7003;20067;48.764;9.176;2022-11-27T03:04:03;46.00;39.75;26.50
26185;PMS7003;20067;48.764;9.176;2022-11-27T03:06:35;39.67;37.33;27.67
26185;PMS7003;20067;48.764;9.176;2022-11-27T03:09:09;42.25;37.75;28.50
26185;PMS7003;20067;48.764;9.176;2022-11-27T03:11:40;31.00;31.00;21.00
26185;PMS7003;20067;48.764;9.176;2022-11-27T03:14:07;40.25;39.25;27.50
26185;PMS7003;20067;48.764;9.176;2022-11-27T03:21:51;32.00;32.00;23.00
26185;PMS7003;20067;48.764;9.176;2022-11-27T03:24:19;37.25;34.75;25.00
26185;PMS7003;20067;48.764;9.176;2022-11-27T03:26:45;38.00;37.00;24.00
26185;PMS7003;20067;48.764;9.176;2022-11-27T03:29:12;35.50;32.50;22.50
26185;PMS7003;20067;48.764;9.176;2022-11-27T03:31:40;35.00;33.75;24.75
26185;PMS7003;20067;48.764;9.176;2022-11-27T03:34:08;34.75;33.75;20.25
26185;PMS7003;20067;48.764;9.176;2022-11-27T03:36:34;32.75;31.25;23.75
26185;PMS7003;20067;48.764;9.176;2022-11-27T03:38:59;33.75;31.75;19.00
26185;PMS7003;20067;48.764;9.176;2022-11-27T03:41:31;34.75;31.00;19.00
26185;PMS7003;20067;48.764;9.176;2022-11-27T03:52:14;34.50;30.50;17.00
26185;PMS7003;20067;48.764;9.176;2022-11-27T03:55:05;26.75;23.50;15.00
26185;PMS7003;20067;48.764;9.176;2022-11-27T04:00:51;23.50;22.50;15.00
26185;PMS7003;20067;48.764;9.176;2022-11-27T04:03:22;30.00;27.75;17.00
26185;PMS7003;20067;48.764;9.176;2022-11-27T04:05:49;25.50;25.25;16.00
26185;PMS7003;20067;48.764;9.176;2022-11-27T04:08:15;26.50;23.25;14.00
26185;PMS7003;20067;48.764;9.176;2022-11-27T04:10:40;29.00;28.50;17.75
26185;PMS7003;20067;48.764;9.176;2022-11-27T04:13:06;25.25;21.50;15.00
26185;PMS7003;20067;48.764;9.176;2022-11-27T04:15:32;30.00;25.50;17.50
26185;PMS7003;20067;48.764;9.176;2022-11-27T04:17:57;25.00;21.25;12.00
26185;PMS7003;20067;48.764;9.176;2022-11-27T04:20:23;27.00;20.75;15.00
26185;PMS7003;20067;48.764;9.176;2022-11-27T04:22:48;31.75;24.75;15.50
26185;PMS7003;20067;48.764;9.176;2022-11-27T04:25:14;24.00;24.00;15.00
26185;PMS7003;20067;48.764;9.176;2022-11-27T04:27:41;26.50;22.75;13.00
26185;PMS7003;20067;48.764;9.176;2022-11-27T04:30:07;27.75;22.00;14.50
26185;PMS7003;20067;48.764;9.176;2022-11-27T04:32:33;24.00;24.00;13.50
26185;PMS7003;20067;48.764;9.176;2022-11-27T04:34:59;26.25;20.25;14.00
26185;PMS7003;20067;48.764;9.176;2022-11-27T04:37:25;25.50;22.75;15.00
26185;PMS7003;20067;48.764;9.176;2022-11-27T04:39:51;22.25;20.75;13.50
26185;PMS7003;20067;48.764;9.176;2022-11-27T04:42:16;21.50;21.50;13.00
26185;PMS7003;20067;48.764;9.176;2022-11-27T04:44:42;23.75;22.00;15.00
26185;PMS7003;20067;48.764;9.176;2022-11-27T04:47:07;23.25;22.75;13.00
26185;PMS7003;20067;48.764;9.176;2022-11-27T04:49:33;29.25;26.00;17.00
26185;PMS7003;20067;48.764;9.176;2022-11-27T04:51:58;25.25;21.50;13.00
26185;PMS7003;20067;48.764;9.176;2022-11-27T04:54:24;29.25;25.25;15.50
26185;PMS7003;20067;48.764;9.176;2022-11-27T04:56:50;19.00;19.00;11.00
26185;PMS7003;20067;48.764;9.176;2022-11-27T04:59:15;25.25;22.25;14.50
26185;PMS7003;20067;48.764;9.176;2022-11-27T05:01:41;21.00;19.50;11.00
26185;PMS7003;20067;48.764;9.176;2022-11-27T05:04:07;28.50;24.50;13.50
26185;PMS7003;20067;48.764;9.176;2022-11-27T05:06:32;28.00;25.00;13.00
26185;PMS7003;20067;48.764;9.176;2022-11-27T05:08:58;25.50;21.50;13.00
26185;PMS7003;20067;48.764;9.176;2022-11-27T05:11:26;24.00;23.50;13.00
26185;PMS7003;20067;48.764;9.176;2022-11-27T05:13:53;22.50;21.00;10.00
26185;PMS7003;20067;48.764;9.176;2022-11-27T05:16:38;19.50;17.50;9.00
26185;PMS7003;20067;48.764;9.176;2022-11-27T05:19:05;21.50;21.50;11.00
26185;PMS7003;20067;48.764;9.176;2022-11-27T05:21:30;23.00;21.00;11.00
26185;PMS7003;20067;48.764;9.176;2022-11-27T05:23:56;27.75;22.50;13.00
26185;PMS7003;20067;48.764;9.176;2022-11-27T05:26:21;24.75;19.00;12.00
26185;PMS7003;20067;48.764;9.176;2022-11-27T05:28:47;23.00;19.75;9.00
26185;PMS7003;20067;48.764;9.176;2022-11-27T05:31:12;23.50;20.75;11.00
26185;PMS7003;20067;48.764;9.176;2022-11-27T05:33:38;23.25;20.25;12.00
26185;PMS7003;20067;48.764;9.176;2022-11-27T05:36:04;23.25;20.75;11.50
26185;PMS7003;20067;48.764;9.176;2022-11-27T05:38:29;24.00;24.00;17.00
26185;PMS7003;20067;48.764;9.176;2022-11-27T05:40:55;22.50;19.00;11.00
26185;PMS7003;20067;48.764;9.176;2022-11-27T05:43:21;29.50;26.50;15.00
26185;PMS7003;20067;48.764;9.176;2022-11-27T05:45:46;21.50;21.50;13.50
26185;PMS7003;20067;48.764;9.176;2022-11-27T05:48:12;21.00;19.00;13.00
26185;PMS7003;20067;48.764;9.176;2022-11-27T05:50:37;22.50;21.00;11.00
26185;PMS7003;20067;48.764;9.176;2022-11-27T05:53:03;21.00;21.00;11.00
26185;PMS7003;20067;48.764;9.176;2022-11-27T05:55:29;23.50;23.00;13.00
26185;PMS7003;20067;48.764;9.176;2022-11-27T05:57:56;35.25;23.75;15.00
26185;PMS7003;20067;48.764;9.176;2022-11-27T06:00:21;25.25;24.50;15.00
26185;PMS7003;20067;48.764;9.176;2022-11-27T06:02:47;18.00;18.00;11.00
26185;PMS7003;20067;48.764;9.176;2022-11-27T06:05:13;24.00;22.00;13.00
26185;PMS7003;20067;48.764;9.176;2022-11-27T06:07:38;19.50;19.00;11.00
26185;PMS7003;20067;48.764;9.176;2022-11-27T06:10:04;22.00;18.50;11.50
26185;PMS7003;20067;48.764;9.176;2022-11-27T06:12:30;25.50;24.50;13.00
26185;PMS7003;20067;48.764;9.176;2022-11-27T06:14:56;25.50;23.50;14.50
26185;PMS7003;20067;48.764;9.176;2022-11-27T06:17:22;28.00;25.00;15.00
26185;PMS7003;20067;48.764;9.176;2022-11-27T06:19:47;29.00;25.00;13.00
26185;PMS7003;20067;48.764;9.176;2022-11-27T06:22:13;25.00;21.50;13.50
26185;PMS7003;20067;48.764;9.176;2022-11-27T06:24:39;25.50;23.00;13.50
26185;PMS7003;20067;48.764;9.176;2022-11-27T06:27:04;28.75;22.00;13.00
26185;PMS7003;20067;48.764;9.176;2022-11-27T06:29:30;28.75;22.00;13.00
26185;PMS7003;20067;48.764;9.176;2022-11-27T06:31:55;28.25;25.75;15.00
26185;PMS7003;20067;48.764;9.176;2022-11-27T06:34:21;25.50;22.00;13.00
26185;PMS7003;20067;48.764;9.176;2022-11-27T06:36:46;22.00;18.50;12.50
26185;PMS7003;20067;48.764;9.176;2022-11-27T06:39:14;21.00;19.00;13.00
26185;PMS7003;20067;48.764;9.176;2022-11-27T06:41:40;19.50;19.50;11.00
26185;PMS7003;20067;48.764;9.176;2022-11-27T06:44:06;23.00;18.50;11.00
26185;PMS7003;20067;48.764;9.176;2022-11-27T06:46:33;17.00;17.00;10.50
26185;PMS7003;20067;48.764;9.176;2022-11-27T06:48:59;19.00;19.00;9.00
26185;PMS7003;20067;48.764;9.176;2022-11-27T06:51:25;22.75;20.75;11.00
26185;PMS7003;20067;48.764;9.176;2022-11-27T06:53:52;22.00;16.50;9.50
26185;PMS7003;20067;48.764;9.176;2022-11-27T06:56:20;23.00;21.00;11.50
26185;PMS7003;20067;48.764;9.176;2022-11-27T06:58:51;24.00;24.00;12.50
26185;PMS7003;20067;48.764;9.176;2022-11-27T07:01:19;20.50;19.50;12.00
26185;PMS7003;20067;48.764;9.176;2022-11-27T07:03:45;26.00;26.00;13.00
26185;PMS7003;20067;48.764;9.176;2022-11-27T07:06:12;31.25;26.50;16.25
26185;PMS7003;20067;48.764;9.176;2022-11-27T07:08:39;29.25;29.25;17.00
26185;PMS7003;20067;48.764;9.176;2022-11-27T07:11:07;35.50;34.00;20.50
26185;PMS7003;20067;48.764;9.176;2022-11-27T07:13:37;31.50;28.00;18.00
26185;PMS7003;20067;48.764;9.176;2022-11-27T07:16:03;27.50;27.50;17.00
26185;PMS7003;20067;48.764;9.176;2022-11-27T07:18:33;28.50;26.00;16.00
26185;PMS7003;20067;48.764;9.176;2022-11-27T07:21:04;27.75;27.00;17.75
26185;PMS7003;20067;48.764;9.176;2022-11-27T07:23:30;31.25;28.75;19.25
26185;PMS7003;20067;48.764;9.176;2022-11-27T07:25:55;30.75;29.00;17.75
26185;PMS7003;20067;48.764;9.176;2022-11-27T07:28:21;29.25;26.00;15.00
26185;PMS7003;20067;48.764;9.176;2022-11-27T07:30:56;34.00;31.00;20.00
26185;PMS7003;20067;48.764;9.176;2022-11-27T07:33:23;30.00;28.00;19.50
26185;PMS7003;20067;48.764;9.176;2022-11-27T07:35:49;42.25;35.25;23.25
26185;PMS7003;20067;48.764;9.176;2022-11-27T07:38:21;30.50;26.25;17.25
26185;PMS7003;20067;48.764;9.176;2022-11-27T07:40:46;28.75;28.25;19.25
26185;PMS7003;20067;48.764;9.176;2022-11-27T07:43:12;23.75;23.25;13.50
26185;PMS7003;20067;48.764;9.176;2022-11-27T07:45:37;30.00;27.00;19.00
26185;PMS7003;20067;48.764;9.176;2022-11-27T07:48:03;30.00;26.00;16.00
26185;PMS7003;20067;48.764;9.176;2022-11-27T07:50:30;27.00;24.00;15.50
26185;PMS7003;20067;48.764;9.176;2022-11-27T07:52:55;27.50;22.50;14.00
26185;PMS7003;20067;48.764;9.176;2022-11-27T07:55:22;23.75;23.25;15.00
26185;PMS7003;20067;48.764;9.176;2022-11-27T07:57:49;19.00;19.00;12.50
26185;PMS7003;20067;48.764;9.176;2022-11-27T08:00:15;26.50;23.00;15.00
26185;PMS7003;20067;48.764;9.176;2022-11-27T08:02:41;24.50;24.00;13.50
26185;PMS7003;20067;48.764;9.176;2022-11-27T08:05:06;28.00;24.75;15.50
26185;PMS7003;20067;48.764;9.176;2022-11-27T08:07:32;24.00;21.25;13.00
26185;PMS7003;20067;48.764;9.176;2022-11-27T08:09:58;22.25;18.50;11.00
26185;PMS7003;20067;48.764;9.176;2022-11-27T08:12:24;19.00;15.50;9.00
26185;PMS7003;20067;48.764;9.176;2022-11-27T08:14:49;24.25;22.75;13.50
26185;PMS7003;20067;48.764;9.176;2022-11-27T08:17:15;24.50;23.50;12.50
26185;PMS7003;20067;48.764;9.176;2022-11-27T08:19:41;26.50;25.00;14.50
26185;PMS7003;20067;48.764;9.176;2022-11-27T08:22:11;24.75;24.75;14.00
26185;PMS7003;20067;48.764;9.176;2022-11-27T08:24:37;26.00;24.00;13.50
26185;PMS7003;20067;48.764;9.176;2022-11-27T08:27:03;26.50;23.00;14.50
26185;PMS7003;20067;48.764;9.176;2022-11-27T08:29:29;25.00;24.00;13.00
26185;PMS7003;20067;48.764;9.176;2022-11-27T08:31:54;28.25;24.00;14.75
26185;PMS7003;20067;48.764;9.176;2022-11-27T08:34:20;26.50;25.50;14.75
26185;PMS7003;20067;48.764;9.176;2022-11-27T08:36:46;27.75;26.25;15.75
26185;PMS7003;20067;48.764;9.176;2022-11-27T08:39:11;28.25;25.50;14.75
26185;PMS7003;20067;48.764;9.176;2022-11-27T08:41:37;25.00;25.00;16.25
26185;PMS7003;20067;48.764;9.176;2022-11-27T08:44:03;27.25;22.50;13.50
26185;PMS7003;20067;48.764;9.176;2022-11-27T08:46:29;29.00;28.00;18.50
26185;PMS7003;20067;48.764;9.176;2022-11-27T08:48:54;25.50;23.50;16.50
26185;PMS7003;20067;48.764;9.176;2022-11-27T08:51:20;30.75;26.50;15.75
26185;PMS7003;20067;48.764;9.176;2022-11-27T08:53:45;27.25;24.75;15.50
26185;PMS7003;20067;48.764;9.176;2022-11-27T08:56:15;26.75;25.00;16.50
26185;PMS7003;20067;48.764;9.176;2022-11-27T08:58:44;31.50;29.25;17.00
26185;PMS7003;20067;48.764;9.176;2022-11-27T09:01:11;29.75;28.75;18.00
26185;PMS7003;20067;48.764;9.176;2022-11-27T09:03:42;24.50;23.25;16.00
26185;PMS7003;20067;48.764;9.176;2022-11-27T09:06:09;26.50;21.50;13.50
26185;PMS7003;20067;48.764;9.176;2022-11-27T09:08:36;23.75;20.50;14.00
26185;PMS7003;20067;48.764;9.176;2022-11-27T09:11:03;24.50;24.50;14.00
26185;PMS7003;20067;48.764;9.176;2022-11-27T09:13:29;26.00;23.50;14.00
26185;PMS7003;20067;48.764;9.176;2022-11-27T09:15:55;24.25;23.25;16.00
26185;PMS7003;20067;48.764;9.176;2022-11-27T09:18:21;25.25;20.25;14.00
26185;PMS7003;20067;48.764;9.176;2022-11-27T09:20:57;24.75;23.25;12.00
26185;PMS7003;20067;48.764;9.176;2022-11-27T09:23:31;23.50;22.75;14.00
26185;PMS7003;20067;48.764;9.176;2022-11-27T09:25:57;24.00;21.50;12.75
26185;PMS7003;20067;48.764;9.176;2022-11-27T09:28:24;21.50;21.25;12.50
26185;PMS7003;20067;48.764;9.176;2022-11-27T09:30:56;32.00;27.25;13.50
26185;PMS7003;20067;48.764;9.176;2022-11-27T09:33:24;27.50;25.50;14.25
26185;PMS7003;20067;48.764;9.176;2022-11-27T09:35:51;32.00;28.75;17.50
26185;PMS7003;20067;48.764;9.176;2022-11-27T09:38:17;32.00;28.00;19.00
26185;PMS7003;20067;48.764;9.176;2022-11-27T09:40:44;33.25;29.00;18.75
26185;PMS7003;20067;48.764;9.176;2022-11-27T09:43:13;26.50;22.00;15.00
26185;PMS7003;20067;48.764;9.176;2022-11-27T09:45:50;26.50;21.00;15.00
26185;PMS7003;20067;48.764;9.176;2022-11-27T09:50:59;26.50;26.50;16.00
26185;PMS7003;20067;48.764;9.176;2022-11-27T09:53:34;32.00;28.75;16.75
26185;PMS7003;20067;48.764;9.176;2022-11-27T09:56:10;31.25;25.50;18.25
26185;PMS7003;20067;48.764;9.176;2022-11-27T09:58:41;26.75;22.50;15.00
26185;PMS7003;20067;48.764;9.176;2022-11-27T10:01:12;25.50;23.50;15.75
26185;PMS7003;20067;48.764;9.176;2022-11-27T10:03:43;29.25;25.50;15.00
26185;PMS7003;20067;48.764;9.176;2022-11-27T10:15:14;26.25;25.25;16.75
26185;PMS7003;20067;48.764;9.176;2022-11-27T10:17:59;27.75;27.00;17.25
26185;PMS7003;20067;48.764;9.176;2022-11-27T10:26:19;35.50;28.25;19.00
26185;PMS7003;20067;48.764;9.176;2022-11-27T10:28:55;37.75;29.75;17.50
26185;PMS7003;20067;48.764;9.176;2022-11-27T10:31:28;30.75;28.00;18.50
26185;PMS7003;20067;48.764;9.176;2022-11-27T10:36:44;28.50;25.75;15.25
26185;PMS7003;20067;48.764;9.176;2022-11-27T10:39:19;32.75;27.50;14.75
26185;PMS7003;20067;48.764;9.176;2022-11-27T10:41:53;50.00;41.50;21.00
26185;PMS7003;20067;48.764;9.176;2022-11-27T10:44:28;27.75;25.25;15.50
26185;PMS7003;20067;48.764;9.176;2022-11-27T10:47:01;29.75;27.75;16.00
26185;PMS7003;20067;48.764;9.176;2022-11-27T10:49:29;31.50;25.50;14.00
26185;PMS7003;20067;48.764;9.176;2022-11-27T10:51:55;25.00;25.00;14.75
26185;PMS7003;20067;48.764;9.176;2022-11-27T10:54:35;24.25;22.00;14.00
26185;PMS7003;20067;48.764;9.176;2022-11-27T10:57:23;22.00;19.75;10.25
26185;PMS7003;20067;48.764;9.176;2022-11-27T11:02:34;27.25;23.25;13.75
26185;PMS7003;20067;48.764;9.176;2022-11-27T11:07:37;28.50;26.25;15.50
26185;PMS7003;20067;48.764;9.176;2022-11-27T11:10:06;28.00;25.00;17.00
26185;PMS7003;20067;48.764;9.176;2022-11-27T11:12:49;20.50;17.75;12.50
26185;PMS7003;20067;48.764;9.176;2022-11-27T11:15:29;18.00;18.00;11.75
26185;PMS7003;20067;48.764;9.176;2022-11-27T11:17:56;23.00;22.50;14.50
26185;PMS7003;20067;48.764;9.176;2022-11-27T11:20:22;23.25;20.25;12.75
26185;PMS7003;20067;48.764;9.176;2022-11-27T11:22:48;23.25;19.00;12.00
26185;PMS7003;20067;48.764;9.176;2022-11-27T11:25:16;21.50;20.25;11.75
26185;PMS7003;20067;48.764;9.176;2022-11-27T11:27:44;24.75;21.25;13.25
26185;PMS7003;20067;48.764;9.176;2022-11-27T11:30:21;21.00;19.00;13.00
26185;PMS7003;20067;48.764;9.176;2022-11-27T11:32:50;23.00;21.75;14.25
26185;PMS7003;20067;48.764;9.176;2022-11-27T11:35:27;21.00;19.75;12.00
26185;PMS7003;20067;48.764;9.176;2022-11-27T11:38:03;20.25;20.00;14.00
26185;PMS7003;20067;48.764;9.176;2022-11-27T11:40:32;21.75;21.75;12.00
26185;PMS7003;20067;48.764;9.176;2022-11-27T11:43:04;21.00;21.00;10.25
26185;PMS7003;20067;48.764;9.176;2022-11-27T11:45:50;33.50;33.50;11.00
26185;PMS7003;20067;48.764;9.176;2022-11-27T11:48:25;26.00;24.00;10.00
26185;PMS7003;20067;48.764;9.176;2022-11-27T11:50:52;30.50;28.25;10.25
26185;PMS7003;20067;48.764;9.176;2022-11-27T12:07:15;33.50;29.25;11.00
26185;PMS7003;20067;48.764;9.176;2022-11-27T12:15:01;18.00;18.00;7.00
26185;PMS7003;20067;48.764;9.176;2022-11-27T12:17:36;15.75;15.75;6.50
26185;PMS7003;20067;48.764;9.176;2022-11-27T12:23:45;12.50;12.50;3.75
26185;PMS7003;20067;48.764;9.176;2022-11-27T12:26:47;21.00;18.25;8.00
26185;PMS7003;20067;48.764;9.176;2022-11-27T12:49:02;15.00;13.75;6.00
26185;PMS7003;20067;48.764;9.176;2022-11-27T12:51:36;16.75;16.00;6.00
26185;PMS7003;20067;48.764;9.176;2022-11-27T12:54:05;16.00;14.00;6.00
26185;PMS7003;20067;48.764;9.176;2022-11-27T13:01:35;18.75;15.50;6.50
26185;PMS7003;20067;48.764;9.176;2022-11-27T13:04:26;16.50;14.00;9.00
26185;PMS7003;20067;48.764;9.176;2022-11-27T13:09:44;14.00;14.00;6.00
26185;PMS7003;20067;48.764;9.176;2022-11-27T13:12:29;19.50;17.00;7.25
26185;PMS7003;20067;48.764;9.176;2022-11-27T13:15:00;17.00;13.75;6.75
26185;PMS7003;20067;48.764;9.176;2022-11-27T13:17:36;14.00;14.00;6.00
26185;PMS7003;20067;48.764;9.176;2022-11-27T13:20:07;14.00;14.00;4.00
26185;PMS7003;20067;48.764;9.176;2022-11-27T13:22:42;15.25;14.75;6.00
26185;PMS7003;20067;48.764;9.176;2022-11-27T13:25:11;16.00;14.00;6.00
26185;PMS7003;20067;48.764;9.176;2022-11-27T13:27:38;17.00;15.25;7.00
26185;PMS7003;20067;48.764;9.176;2022-11-27T13:30:17;19.25;16.50;10.25
26185;PMS7003;20067;48.764;9.176;2022-11-27T13:32:49;19.25;18.25;9.00
26185;PMS7003;20067;48.764;9.176;2022-11-27T13:37:44;20.00;17.00;7.00
26185;PMS7003;20067;48.764;9.176;2022-11-27T13:40:22;15.50;14.50;6.25
26185;PMS7003;20067;48.764;9.176;2022-11-27T13:42:55;16.00;15.25;7.75
26185;PMS7003;20067;48.764;9.176;2022-11-27T13:45:30;18.75;17.00;6.75
26185;PMS7003;20067;48.764;9.176;2022-11-27T13:48:00;37.50;36.00;15.25
26185;PMS7003;20067;48.764;9.176;2022-11-27T13:50:30;31.00;28.50;17.75
26185;PMS7003;20067;48.764;9.176;2022-11-27T13:53:08;37.75;34.25;18.25
26185;PMS7003;20067;48.764;9.176;2022-11-27T13:55:35;31.00;27.50;14.00
26185;PMS7003;20067;48.764;9.176;2022-11-27T13:58:02;25.25;21.50;11.00
26185;PMS7003;20067;48.764;9.176;2022-11-27T14:00:34;16.50;15.50;9.00
26185;PMS7003;20067;48.764;9.176;2022-11-27T14:03:01;27.50;23.75;9.00
26185;PMS7003;20067;48.764;9.176;2022-11-27T14:05:35;32.25;31.00;10.50
26185;PMS7003;20067;48.764;9.176;2022-11-27T14:08:15;21.50;19.00;8.00
26185;PMS7003;20067;48.764;9.176;2022-11-27T14:10:54;26.50;25.75;9.00
26185;PMS7003;20067;48.764;9.176;2022-11-27T14:18:58;16.25;15.75;8.75
26185;PMS7003;20067;48.764;9.176;2022-11-27T14:24:03;23.50;20.00;5.00
26185;PMS7003;20067;48.764;9.176;2022-11-27T14:27:20;27.75;23.75;8.50
26185;PMS7003;20067;48.764;9.176;2022-11-27T14:29:47;24.25;21.00;6.00
26185;PMS7003;20067;48.764;9.176;2022-11-27T14:32:14;29.00;27.00;9.50
26185;PMS7003;20067;48.764;9.176;2022-11-27T14:34:41;26.00;24.50;6.00
26185;PMS7003;20067;48.764;9.176;2022-11-27T14:39:49;22.00;21.50;6.00
26185;PMS7003;20067;48.764;9.176;2022-11-27T14:42:18;27.75;26.00;7.00
26185;PMS7003;20067;48.764;9.176;2022-11-27T14:44:48;18.00;13.25;7.25
26185;PMS7003;20067;48.764;9.176;2022-11-27T14:47:24;18.50;16.00;8.00
26185;PMS7003;20067;48.764;9.176;2022-11-27T14:49:53;24.00;24.00;7.00
26185;PMS7003;20067;48.764;9.176;2022-11-27T14:52:20;16.50;16.50;9.75
26185;PMS7003;20067;48.764;9.176;2022-11-27T14:54:46;16.00;15.75;10.00
26185;PMS7003;20067;48.764;9.176;2022-11-27T14:57:14;17.00;17.00;10.00
26185;PMS7003;20067;48.764;9.176;2022-11-27T14:59:46;24.75;18.75;9.50
26185;PMS7003;20067;48.764;9.176;2022-11-27T15:04:38;19.25;16.75;9.00
26185;PMS7003;20067;48.764;9.176;2022-11-27T15:09:49;22.25;22.00;12.00
26185;PMS7003;20067;48.764;9.176;2022-11-27T15:14:58;20.00;19.00;11.00
26185;PMS7003;20067;48.764;9.176;2022-11-27T15:17:35;21.75;16.00;8.25
26185;PMS7003;20067;48.764;9.176;2022-11-27T15:20:04;16.00;16.00;9.00
26185;PMS7003;20067;48.764;9.176;2022-11-27T15:22:38;19.25;19.25;10.00
26185;PMS7003;20067;48.764;9.176;2022-11-27T15:25:27;24.25;21.50;11.00
26185;PMS7003;20067;48.764;9.176;2022-11-27T15:27:53;28.75;26.00;8.00
26185;PMS7003;20067;48.764;9.176;2022-11-27T15:30:19;19.00;19.00;10.00
26185;PMS7003;20067;48.764;9.176;2022-11-27T15:32:48;23.75;20.00;11.25
26185;PMS7003;20067;48.764;9.176;2022-11-27T15:35:23;19.25;17.50;9.00
26185;PMS7003;20067;48.764;9.176;2022-11-27T15:37:55;15.50;15.50;9.00
26185;PMS7003;20067;48.764;9.176;2022-11-27T15:40:29;21.50;20.50;11.25
26185;PMS7003;20067;48.764;9.176;2022-11-27T15:42:58;26.25;24.50;11.00
26185;PMS7003;20067;48.764;9.176;2022-11-27T15:45:27;22.75;19.00;8.00
26185;PMS7003;20067;48.764;9.176;2022-11-27T15:47:59;30.25;29.50;8.00
26185;PMS7003;20067;48.764;9.176;2022-11-27T15:50:26;28.25;24.75;9.50
26185;PMS7003;20067;48.764;9.176;2022-11-27T15:52:52;32.25;28.75;9.50
26185;PMS7003;20067;48.764;9.176;2022-11-27T15:55:18;27.50;23.50;13.00
26185;PMS7003;20067;48.764;9.176;2022-11-27T15:57:44;23.25;23.25;10.00
26185;PMS7003;20067;48.764;9.176;2022-11-27T16:00:10;24.75;22.25;13.00
26185;PMS7003;20067;48.764;9.176;2022-11-27T16:02:37;33.75;31.00;16.00
26185;PMS7003;20067;48.764;9.176;2022-11-27T16:05:03;28.25;28.25;13.00
26185;PMS7003;20067;48.764;9.176;2022-11-27T16:07:30;27.50;25.25;11.00
26185;PMS7003;20067;48.764;9.176;2022-11-27T16:09:56;27.00;25.00;10.00